sensor_id;sensor_type;location;lat;lon;timestamp;P1;P2;P0
77516;PMS7003;68414;53.946;27.634;2024-02-15T00:00:33;1.933333;1.700000;1.500000
77516;PMS7003;68414;53.946;27.634;2024-02-15T00:01:33;2.750000;1.966667;1.416667
77516;PMS7003;68414;53.946;27.634;2024-02-15T00:02:33;1.733333;1.733333;1.433333
77516;PMS7003;68414;53.946;27.634;2024-02-15T00:03:33;1.883333;1.883333;1.633333
77516;PMS7003;68414;53.946;27.634;2024-02-15T00:04:33;2.116667;1.916667;1.800000
77516;PMS7003;68414;53.946;27.634;2024-02-15T00:05:33;2.183333;1.666667;1.550000
77516;PMS7003;68414;53.946;27.634;2024-02-15T00:06:33;2.533333;1.583333;1.233333
77516;PMS7003;68414;53.946;27.634;2024-02-15T00:07:33;1.666667;1.666667;1.233333
77516;PMS7003;68414;53.946;27.634;2024-02-15T00:08:33;2.150000;2.150000;1.600000
77516;PMS7003;68414;53.946;27.634;2024-02-15T00:09:33;3.350000;2.416667;1.983333
77516;PMS7003;68414;53.946;27.634;2024-02-15T00:10:33;2.366667;2.366667;2.000000
77516;PMS7003;68414;53.946;27.634;2024-02-15T00:11:33;1.816667;1.816667;1.700000
77516;PMS7003;68414;53.946;27.634;2024-02-15T00:12:33;1.533333;1.533333;1.100000
77516;PMS7003;68414;53.946;27.634;2024-02-15T00:13:33;2.733333;1.733333;1.566667
77516;PMS7003;68414;53.946;27.634;2024-02-15T00:14:33;1.416667;1.416667;1.283333
77516;PMS7003;68414;53.946;27.634;2024-02-15T00:15:33;2.200000;2.200000;1.783333
77516;PMS7003;68414;53.946;27.634;2024-02-15T00:16:34;1.433333;1.433333;0.933333
77516;PMS7003;68414;53.946;27.634;2024-02-15T00:17:33;1.900000;1.900000;1.433333
77516;PMS7003;68414;53.946;27.634;2024-02-15T00:18:33;1.850000;1.850000;1.566667
77516;PMS7003;68414;53.946;27.634;2024-02-15T00:19:33;2.233333;2.050000;1.833333
77516;PMS7003;68414;53.946;27.634;2024-02-15T00:20:33;2.383333;2.033333;1.566667
77516;PMS7003;68414;53.946;27.634;2024-02-15T00:21:33;1.800000;1.800000;1.250000
77516;PMS7003;68414;53.946;27.634;2024-02-15T00:22:34;1.683333;1.683333;1.633333
77516;PMS7003;68414;53.946;27.634;2024-02-15T00:23:33;2.150000;1.616667;1.450000
77516;PMS7003;68414;53.946;27.634;2024-02-15T00:24:33;2.216667;1.966667;1.533333
77516;PMS7003;68414;53.946;27.634;2024-02-15T00:25:33;2.283333;1.750000;1.516667
77516;PMS7003;68414;53.946;27.634;2024-02-15T00:26:33;2.050000;1.466667;1.350000
77516;PMS7003;68414;53.946;27.634;2024-02-15T00:27:33;2.216667;1.950000;1.716667
77516;PMS7003;68414;53.946;27.634;2024-02-15T00:28:33;1.950000;1.550000;1.433333
77516;PMS7003;68414;53.946;27.634;2024-02-15T00:29:33;1.916667;1.750000;1.566667
77516;PMS7003;68414;53.946;27.634;2024-02-15T00:30:34;1.750000;1.750000;1.516667
77516;PMS7003;68414;53.946;27.634;2024-02-15T00:31:33;2.816667;1.750000;1.300000
77516;PMS7003;68414;53.946;27.634;2024-02-15T00:32:35;1.850000;1.850000;1.616667
77516;PMS7003;68414;53.946;27.634;2024-02-15T00:33:35;1.916667;1.916667;1.366667
77516;PMS7003;68414;53.946;27.634;2024-02-15T00:34:33;1.700000;1.266667;1.033333
77516;PMS7003;68414;53.946;27.634;2024-02-15T00:35:33;1.883333;1.683333;1.533333
77516;PMS7003;68414;53.946;27.634;2024-02-15T00:36:33;1.783333;1.450000;1.283333
77516;PMS7003;68414;53.946;27.634;2024-02-15T00:37:33;2.733333;2.050000;1.450000
77516;PMS7003;68414;53.946;27.634;2024-02-15T00:38:34;2.200000;2.200000;1.416667
77516;PMS7003;68414;53.946;27.634;2024-02-15T00:39:33;2.633333;1.966667;1.400000
77516;PMS7003;68414;53.946;27.634;2024-02-15T00:40:33;2.816667;2.133333;1.616667
77516;PMS7003;68414;53.946;27.634;2024-02-15T00:41:33;1.716667;1.716667;1.500000
77516;PMS7003;68414;53.946;27.634;2024-02-15T00:42:34;1.500000;1.316667;1.283333
77516;PMS7003;68414;53.946;27.634;2024-02-15T00:43:34;1.866667;1.700000;1.533333
77516;PMS7003;68414;53.946;27.634;2024-02-15T00:44:33;1.566667;1.116667;1.050000
77516;PMS7003;68414;53.946;27.634;2024-02-15T00:45:33;2.383333;1.966667;1.350000
77516;PMS7003;68414;53.946;27.634;2024-02-15T00:46:33;1.016667;1.016667;1.000000
77516;PMS7003;68414;53.946;27.634;2024-02-15T00:47:33;1.133333;1.133333;1.000000
77516;PMS7003;68414;53.946;27.634;2024-02-15T00:48:33;2.216667;2.066667;1.566667
77516;PMS7003;68414;53.946;27.634;2024-02-15T00:49:33;1.250000;1.250000;1.116667
77516;PMS7003;68414;53.946;27.634;2024-02-15T00:50:33;1.633333;1.633333;1.266667
77516;PMS7003;68414;53.946;27.634;2024-02-15T00:51:33;1.533333;1.533333;1.216667
77516;PMS7003;68414;53.946;27.634;2024-02-15T00:52:33;1.983333;1.866667;1.416667
77516;PMS7003;68414;53.946;27.634;2024-02-15T00:53:34;2.516667;1.916667;1.583333
77516;PMS7003;68414;53.946;27.634;2024-02-15T00:54:33;1.800000;1.800000;1.716667
77516;PMS7003;68414;53.946;27.634;2024-02-15T00:55:33;1.433333;1.433333;1.383333
77516;PMS7003;68414;53.946;27.634;2024-02-15T00:56:33;1.766667;1.400000;1.350000
77516;PMS7003;68414;53.946;27.634;2024-02-15T00:57:33;3.016667;2.483333;1.866667
77516;PMS7003;68414;53.946;27.634;2024-02-15T00:58:34;2.150000;1.883333;1.633333
77516;PMS7003;68414;53.946;27.634;2024-02-15T00:59:33;2.516667;2.216667;1.900000
77516;PMS7003;68414;53.946;27.634;2024-02-15T01:00:33;1.866667;1.866667;1.700000
77516;PMS7003;68414;53.946;27.634;2024-02-15T01:01:33;1.633333;1.633333;1.533333
77516;PMS7003;68414;53.946;27.634;2024-02-15T01:02:33;2.166667;2.166667;1.700000
77516;PMS7003;68414;53.946;27.634;2024-02-15T01:03:33;2.033333;2.033333;1.850000
77516;PMS7003;68414;53.946;27.634;2024-02-15T01:04:34;2.200000;2.200000;1.650000
77516;PMS7003;68414;53.946;27.634;2024-02-15T01:05:33;1.500000;1.500000;1.383333
77516;PMS7003;68414;53.946;27.634;2024-02-15T01:06:33;3.016667;2.216667;1.800000
77516;PMS7003;68414;53.946;27.634;2024-02-15T01:07:33;2.150000;1.983333;1.600000
77516;PMS7003;68414;53.946;27.634;2024-02-15T01:08:33;2.050000;2.050000;1.533333
77516;PMS7003;68414;53.946;27.634;2024-02-15T01:09:33;2.383333;2.383333;2.033333
77516;PMS7003;68414;53.946;27.634;2024-02-15T01:10:33;1.700000;1.700000;1.516667
77516;PMS7003;68414;53.946;27.634;2024-02-15T01:11:33;2.033333;1.716667;1.383333
77516;PMS7003;68414;53.946;27.634;2024-02-15T01:12:33;1.350000;1.350000;1.133333
77516;PMS7003;68414;53.946;27.634;2024-02-15T01:13:33;2.000000;1.866667;1.400000
77516;PMS7003;68414;53.946;27.634;2024-02-15T01:14:33;2.950000;2.516667;2.150000
77516;PMS7003;68414;53.946;27.634;2024-02-15T01:15:32;1.850000;1.850000;1.633333
77516;PMS7003;68414;53.946;27.634;2024-02-15T01:16:32;3.200000;2.116667;1.766667
77516;PMS7003;68414;53.946;27.634;2024-02-15T01:17:33;1.933333;1.766667;1.283333
77516;PMS7003;68414;53.946;27.634;2024-02-15T01:18:33;2.200000;1.950000;1.450000
77516;PMS7003;68414;53.946;27.634;2024-02-15T01:19:33;2.416667;2.416667;1.983333
77516;PMS7003;68414;53.946;27.634;2024-02-15T01:20:33;2.066667;2.066667;1.566667
77516;PMS7003;68414;53.946;27.634;2024-02-15T01:21:33;2.116667;1.550000;1.316667
77516;PMS7003;68414;53.946;27.634;2024-02-15T01:22:33;2.200000;2.200000;1.633333
77516;PMS7003;68414;53.946;27.634;2024-02-15T01:23:33;2.216667;2.216667;1.850000
77516;PMS7003;68414;53.946;27.634;2024-02-15T01:24:33;2.350000;1.900000;1.333333
77516;PMS7003;68414;53.946;27.634;2024-02-15T01:25:33;1.966667;1.700000;1.366667
77516;PMS7003;68414;53.946;27.634;2024-02-15T01:26:33;2.183333;2.083333;1.733333
77516;PMS7003;68414;53.946;27.634;2024-02-15T01:27:33;2.433333;2.150000;1.733333
77516;PMS7003;68414;53.946;27.634;2024-02-15T01:28:33;1.950000;1.950000;1.516667
77516;PMS7003;68414;53.946;27.634;2024-02-15T01:29:33;2.150000;1.800000;1.583333
77516;PMS7003;68414;53.946;27.634;2024-02-15T01:30:33;2.350000;2.150000;1.683333
77516;PMS7003;68414;53.946;27.634;2024-02-15T01:31:32;1.666667;1.533333;1.433333
77516;PMS7003;68414;53.946;27.634;2024-02-15T01:32:32;1.933333;1.933333;1.616667
77516;PMS7003;68414;53.946;27.634;2024-02-15T01:33:33;2.500000;1.850000;1.733333
77516;PMS7003;68414;53.946;27.634;2024-02-15T01:34:32;3.066667;2.516667;2.016667
77516;PMS7003;68414;53.946;27.634;2024-02-15T01:35:32;1.616667;1.616667;1.333333
77516;PMS7003;68414;53.946;27.634;2024-02-15T01:36:33;2.516667;2.516667;2.200000
77516;PMS7003;68414;53.946;27.634;2024-02-15T01:37:33;2.883333;2.850000;2.283333
77516;PMS7003;68414;53.946;27.634;2024-02-15T01:38:33;2.100000;1.666667;1.533333
77516;PMS7003;68414;53.946;27.634;2024-02-15T01:39:33;2.283333;2.283333;1.816667
77516;PMS7003;68414;53.946;27.634;2024-02-15T01:40:33;2.733333;2.433333;2.033333
77516;PMS7003;68414;53.946;27.634;2024-02-15T01:41:32;3.016667;2.200000;1.750000
77516;PMS7003;68414;53.946;27.634;2024-02-15T01:42:32;1.716667;1.683333;1.416667
77516;PMS7003;68414;53.946;27.634;2024-02-15T01:43:32;2.100000;1.616667;1.433333
77516;PMS7003;68414;53.946;27.634;2024-02-15T01:44:32;2.750000;2.316667;1.683333
77516;PMS7003;68414;53.946;27.634;2024-02-15T01:45:32;2.316667;1.833333;1.366667
77516;PMS7003;68414;53.946;27.634;2024-02-15T01:46:33;2.900000;2.416667;1.983333
77516;PMS7003;68414;53.946;27.634;2024-02-15T01:47:33;2.550000;2.433333;2.016667
77516;PMS7003;68414;53.946;27.634;2024-02-15T01:48:33;2.333333;2.133333;1.933333
77516;PMS7003;68414;53.946;27.634;2024-02-15T01:49:33;2.283333;2.283333;2.033333
77516;PMS7003;68414;53.946;27.634;2024-02-15T01:50:33;2.350000;2.350000;1.800000
77516;PMS7003;68414;53.946;27.634;2024-02-15T01:51:33;2.733333;2.500000;2.066667
77516;PMS7003;68414;53.946;27.634;2024-02-15T01:52:33;2.050000;1.933333;1.800000
77516;PMS7003;68414;53.946;27.634;2024-02-15T01:53:33;2.600000;2.583333;1.983333
77516;PMS7003;68414;53.946;27.634;2024-02-15T01:54:33;2.366667;2.366667;1.666667
77516;PMS7003;68414;53.946;27.634;2024-02-15T01:55:32;2.566667;2.050000;1.666667
77516;PMS7003;68414;53.946;27.634;2024-02-15T01:56:32;2.550000;2.150000;1.800000
77516;PMS7003;68414;53.946;27.634;2024-02-15T01:57:33;2.433333;2.150000;1.783333
77516;PMS7003;68414;53.946;27.634;2024-02-15T01:58:33;2.716667;2.283333;1.850000
77516;PMS7003;68414;53.946;27.634;2024-02-15T01:59:32;2.616667;2.616667;2.250000
77516;PMS7003;68414;53.946;27.634;2024-02-15T02:00:32;2.150000;1.883333;1.633333
77516;PMS7003;68414;53.946;27.634;2024-02-15T02:01:33;1.983333;1.650000;1.233333
77516;PMS7003;68414;53.946;27.634;2024-02-15T02:02:34;3.100000;2.533333;2.216667
77516;PMS7003;68414;53.946;27.634;2024-02-15T02:03:33;2.950000;2.066667;1.766667
77516;PMS7003;68414;53.946;27.634;2024-02-15T02:04:33;2.366667;2.083333;1.566667
77516;PMS7003;68414;53.946;27.634;2024-02-15T02:05:33;2.433333;2.433333;1.916667
77516;PMS7003;68414;53.946;27.634;2024-02-15T02:06:33;2.233333;2.233333;2.116667
77516;PMS7003;68414;53.946;27.634;2024-02-15T02:07:34;2.200000;2.200000;2.150000
77516;PMS7003;68414;53.946;27.634;2024-02-15T02:08:33;2.916667;2.916667;2.083333
77516;PMS7003;68414;53.946;27.634;2024-02-15T02:09:33;2.883333;2.533333;2.000000
77516;PMS7003;68414;53.946;27.634;2024-02-15T02:10:32;2.200000;2.200000;1.883333
77516;PMS7003;68414;53.946;27.634;2024-02-15T02:11:32;2.383333;2.383333;1.833333
77516;PMS7003;68414;53.946;27.634;2024-02-15T02:12:33;3.016667;2.383333;2.066667
77516;PMS7003;68414;53.946;27.634;2024-02-15T02:13:33;3.166667;2.750000;1.900000
77516;PMS7003;68414;53.946;27.634;2024-02-15T02:14:32;2.183333;2.183333;1.983333
77516;PMS7003;68414;53.946;27.634;2024-02-15T02:15:32;2.533333;2.533333;2.050000
77516;PMS7003;68414;53.946;27.634;2024-02-15T02:16:33;2.900000;2.483333;1.900000
77516;PMS7003;68414;53.946;27.634;2024-02-15T02:17:33;3.783333;3.283333;2.300000
77516;PMS7003;68414;53.946;27.634;2024-02-15T02:18:33;2.633333;2.416667;1.883333
77516;PMS7003;68414;53.946;27.634;2024-02-15T02:19:32;2.433333;2.166667;1.766667
77516;PMS7003;68414;53.946;27.634;2024-02-15T02:20:32;2.950000;2.750000;2.216667
77516;PMS7003;68414;53.946;27.634;2024-02-15T02:21:32;3.166667;2.700000;1.766667
77516;PMS7003;68414;53.946;27.634;2024-02-15T02:22:32;2.800000;1.966667;1.683333
77516;PMS7003;68414;53.946;27.634;2024-02-15T02:23:33;3.133333;2.566667;2.250000
77516;PMS7003;68414;53.946;27.634;2024-02-15T02:24:36;2.816667;2.550000;2.033333
77516;PMS7003;68414;53.946;27.634;2024-02-15T02:25:33;2.666667;2.350000;2.000000
77516;PMS7003;68414;53.946;27.634;2024-02-15T02:26:33;2.083333;2.083333;1.683333
77516;PMS7003;68414;53.946;27.634;2024-02-15T02:27:33;2.616667;2.400000;1.966667
77516;PMS7003;68414;53.946;27.634;2024-02-15T02:28:32;3.283333;3.283333;2.316667
77516;PMS7003;68414;53.946;27.634;2024-02-15T02:29:32;2.400000;2.400000;1.766667
77516;PMS7003;68414;53.946;27.634;2024-02-15T02:30:32;2.550000;2.200000;1.716667
77516;PMS7003;68414;53.946;27.634;2024-02-15T02:31:33;2.700000;2.216667;1.850000
77516;PMS7003;68414;53.946;27.634;2024-02-15T02:32:33;3.783333;2.716667;2.200000
77516;PMS7003;68414;53.946;27.634;2024-02-15T02:33:32;2.033333;1.750000;1.516667
77516;PMS7003;68414;53.946;27.634;2024-02-15T02:34:32;2.583333;1.866667;1.466667
77516;PMS7003;68414;53.946;27.634;2024-02-15T02:35:33;1.950000;1.850000;1.633333
77516;PMS7003;68414;53.946;27.634;2024-02-15T02:36:34;2.400000;2.400000;2.033333
77516;PMS7003;68414;53.946;27.634;2024-02-15T02:37:33;2.550000;2.350000;1.816667
77516;PMS7003;68414;53.946;27.634;2024-02-15T02:38:32;2.566667;2.333333;1.866667
77516;PMS7003;68414;53.946;27.634;2024-02-15T02:39:32;2.516667;2.483333;1.966667
77516;PMS7003;68414;53.946;27.634;2024-02-15T02:40:32;2.416667;2.416667;1.800000
77516;PMS7003;68414;53.946;27.634;2024-02-15T02:41:32;2.966667;2.550000;1.983333
77516;PMS7003;68414;53.946;27.634;2024-02-15T02:42:32;3.216667;2.600000;1.816667
77516;PMS7003;68414;53.946;27.634;2024-02-15T02:43:32;2.133333;2.133333;1.850000
77516;PMS7003;68414;53.946;27.634;2024-02-15T02:44:32;3.166667;2.766667;2.016667
77516;PMS7003;68414;53.946;27.634;2024-02-15T02:45:33;3.066667;3.066667;2.416667
77516;PMS7003;68414;53.946;27.634;2024-02-15T02:46:32;3.250000;2.800000;2.166667
77516;PMS7003;68414;53.946;27.634;2024-02-15T02:47:32;3.183333;2.933333;2.250000
77516;PMS7003;68414;53.946;27.634;2024-02-15T02:48:32;2.800000;2.583333;2.066667
77516;PMS7003;68414;53.946;27.634;2024-02-15T02:49:35;3.600000;2.916667;2.400000
77516;PMS7003;68414;53.946;27.634;2024-02-15T02:50:33;2.250000;1.966667;1.666667
77516;PMS7003;68414;53.946;27.634;2024-02-15T02:51:32;2.733333;2.633333;2.433333
77516;PMS7003;68414;53.946;27.634;2024-02-15T02:52:32;4.100000;3.616667;2.666667
77516;PMS7003;68414;53.946;27.634;2024-02-15T02:53:33;3.416667;3.416667;2.566667
77516;PMS7003;68414;53.946;27.634;2024-02-15T02:54:32;4.250000;3.483333;2.500000
77516;PMS7003;68414;53.946;27.634;2024-02-15T02:55:32;3.133333;3.133333;2.450000
77516;PMS7003;68414;53.946;27.634;2024-02-15T02:56:32;3.183333;2.850000;2.083333
77516;PMS7003;68414;53.946;27.634;2024-02-15T02:57:32;3.500000;3.466667;2.733333
77516;PMS7003;68414;53.946;27.634;2024-02-15T02:58:32;2.950000;2.916667;2.783333
77516;PMS7003;68414;53.946;27.634;2024-02-15T02:59:34;3.433333;2.966667;2.400000
77516;PMS7003;68414;53.946;27.634;2024-02-15T03:00:32;3.350000;3.066667;2.500000
77516;PMS7003;68414;53.946;27.634;2024-02-15T03:01:32;4.483333;4.050000;3.300000
77516;PMS7003;68414;53.946;27.634;2024-02-15T03:02:33;4.333333;4.333333;3.550000
77516;PMS7003;68414;53.946;27.634;2024-02-15T03:03:32;4.550000;4.116667;3.216667
77516;PMS7003;68414;53.946;27.634;2024-02-15T03:04:32;3.650000;3.650000;3.016667
77516;PMS7003;68414;53.946;27.634;2024-02-15T03:05:32;3.950000;3.333333;2.666667
77516;PMS7003;68414;53.946;27.634;2024-02-15T03:06:32;4.133333;3.700000;2.950000
77516;PMS7003;68414;53.946;27.634;2024-02-15T03:07:32;3.150000;3.150000;2.616667
77516;PMS7003;68414;53.946;27.634;2024-02-15T03:08:32;3.833333;3.300000;2.650000
77516;PMS7003;68414;53.946;27.634;2024-02-15T03:09:32;3.966667;3.816667;2.833333
77516;PMS7003;68414;53.946;27.634;2024-02-15T03:10:32;4.716667;3.933333;2.950000
77516;PMS7003;68414;53.946;27.634;2024-02-15T03:11:32;5.933333;5.400000;3.866667
77516;PMS7003;68414;53.946;27.634;2024-02-15T03:12:32;4.700000;3.816667;3.000000
77516;PMS7003;68414;53.946;27.634;2024-02-15T03:13:32;4.800000;4.316667;3.033333
77516;PMS7003;68414;53.946;27.634;2024-02-15T03:14:32;3.616667;3.616667;3.250000
77516;PMS7003;68414;53.946;27.634;2024-02-15T03:15:32;4.266667;4.016667;3.216667
77516;PMS7003;68414;53.946;27.634;2024-02-15T03:16:33;5.033333;4.683333;3.433333
77516;PMS7003;68414;53.946;27.634;2024-02-15T03:17:32;4.233333;4.233333;3.033333
77516;PMS7003;68414;53.946;27.634;2024-02-15T03:18:32;4.883333;3.766667;3.116667
77516;PMS7003;68414;53.946;27.634;2024-02-15T03:19:32;3.666667;3.666667;2.716667
77516;PMS7003;68414;53.946;27.634;2024-02-15T03:20:33;5.383333;4.950000;3.733333
77516;PMS7003;68414;53.946;27.634;2024-02-15T03:21:32;5.900000;4.800000;3.933333
77516;PMS7003;68414;53.946;27.634;2024-02-15T03:22:32;6.016667;5.616667;4.616667
77516;PMS7003;68414;53.946;27.634;2024-02-15T03:23:32;7.350000;6.983333;5.883333
77516;PMS7003;68414;53.946;27.634;2024-02-15T03:24:32;12.150000;11.300000;9.216666
77516;PMS7003;68414;53.946;27.634;2024-02-15T03:25:32;11.800000;9.166667;6.983333
77516;PMS7003;68414;53.946;27.634;2024-02-15T03:26:32;9.100000;8.416667;6.150000
77516;PMS7003;68414;53.946;27.634;2024-02-15T03:27:33;4.866667;4.683333;4.116667
77516;PMS7003;68414;53.946;27.634;2024-02-15T03:28:32;4.950000;4.350000;3.400000
77516;PMS7003;68414;53.946;27.634;2024-02-15T03:29:32;4.183333;4.066667;3.383333
77516;PMS7003;68414;53.946;27.634;2024-02-15T03:30:32;4.033333;4.033333;3.000000
77516;PMS7003;68414;53.946;27.634;2024-02-15T03:31:33;6.533333;5.116667;3.950000
77516;PMS7003;68414;53.946;27.634;2024-02-15T03:32:32;5.550000;4.400000;3.616667
77516;PMS7003;68414;53.946;27.634;2024-02-15T03:33:32;5.033333;4.766667;4.000000
77516;PMS7003;68414;53.946;27.634;2024-02-15T03:34:32;5.300000;4.133333;3.500000
77516;PMS7003;68414;53.946;27.634;2024-02-15T03:35:32;5.550000;4.500000;3.283333
77516;PMS7003;68414;53.946;27.634;2024-02-15T03:36:32;4.066667;3.833333;3.200000
77516;PMS7003;68414;53.946;27.634;2024-02-15T03:37:32;4.316667;3.633333;2.933333
77516;PMS7003;68414;53.946;27.634;2024-02-15T03:38:32;4.333333;3.583333;2.900000
77516;PMS7003;68414;53.946;27.634;2024-02-15T03:39:33;5.100000;4.900000;3.566667
77516;PMS7003;68414;53.946;27.634;2024-02-15T03:40:32;4.466667;4.316667;3.150000
77516;PMS7003;68414;53.946;27.634;2024-02-15T03:41:32;4.900000;3.983333;3.083333
77516;PMS7003;68414;53.946;27.634;2024-02-15T03:42:32;4.900000;4.416667;3.716667
77516;PMS7003;68414;53.946;27.634;2024-02-15T03:43:32;4.783333;4.400000;3.250000
77516;PMS7003;68414;53.946;27.634;2024-02-15T03:44:32;4.450000;4.216667;3.466667
77516;PMS7003;68414;53.946;27.634;2024-02-15T03:45:32;4.616667;3.933333;3.000000
77516;PMS7003;68414;53.946;27.634;2024-02-15T03:46:32;4.250000;4.250000;3.566667
77516;PMS7003;68414;53.946;27.634;2024-02-15T03:47:32;3.733333;3.583333;2.983333
77516;PMS7003;68414;53.946;27.634;2024-02-15T03:48:32;5.483333;4.516667;3.466667
77516;PMS7003;68414;53.946;27.634;2024-02-15T03:49:32;4.150000;3.883333;3.166667
77516;PMS7003;68414;53.946;27.634;2024-02-15T03:50:32;5.000000;4.933333;3.783333
77516;PMS7003;68414;53.946;27.634;2024-02-15T03:51:32;7.016667;4.700000;3.666667
77516;PMS7003;68414;53.946;27.634;2024-02-15T03:52:32;4.083333;3.900000;3.350000
77516;PMS7003;68414;53.946;27.634;2024-02-15T03:53:32;5.066667;4.650000;3.516667
77516;PMS7003;68414;53.946;27.634;2024-02-15T03:54:32;5.066667;4.616667;3.333333
77516;PMS7003;68414;53.946;27.634;2024-02-15T03:55:32;5.883333;5.200000;3.666667
77516;PMS7003;68414;53.946;27.634;2024-02-15T03:56:32;5.100000;4.566667;3.733333
77516;PMS7003;68414;53.946;27.634;2024-02-15T03:57:33;5.750000;5.466667;4.250000
77516;PMS7003;68414;53.946;27.634;2024-02-15T03:58:32;6.466667;5.466667;3.983333
77516;PMS7003;68414;53.946;27.634;2024-02-15T03:59:33;5.966667;5.050000;3.866667
77516;PMS7003;68414;53.946;27.634;2024-02-15T04:00:32;5.900000;5.800000;4.300000
77516;PMS7003;68414;53.946;27.634;2024-02-15T04:01:32;4.866667;4.133333;3.350000
77516;PMS7003;68414;53.946;27.634;2024-02-15T04:02:32;6.716667;5.050000;3.983333
77516;PMS7003;68414;53.946;27.634;2024-02-15T04:03:33;6.000000;5.466667;4.350000
77516;PMS7003;68414;53.946;27.634;2024-02-15T04:04:32;5.216667;4.766667;3.416667
77516;PMS7003;68414;53.946;27.634;2024-02-15T04:05:32;4.616667;4.216667;3.200000
77516;PMS7003;68414;53.946;27.634;2024-02-15T04:06:32;5.050000;4.366667;3.366667
77516;PMS7003;68414;53.946;27.634;2024-02-15T04:07:32;4.700000;4.016667;3.016667
77516;PMS7003;68414;53.946;27.634;2024-02-15T04:08:32;5.483333;4.816667;3.550000
77516;PMS7003;68414;53.946;27.634;2024-02-15T04:09:32;6.183333;5.050000;3.933333
77516;PMS7003;68414;53.946;27.634;2024-02-15T04:10:32;6.350000;5.366667;4.033333
77516;PMS7003;68414;53.946;27.634;2024-02-15T04:11:32;4.950000;4.683333;3.666667
77516;PMS7003;68414;53.946;27.634;2024-02-15T04:12:32;5.416667;4.866667;3.900000
77516;PMS7003;68414;53.946;27.634;2024-02-15T04:13:33;6.850000;4.450000;3.516667
77516;PMS7003;68414;53.946;27.634;2024-02-15T04:14:33;5.166667;4.950000;3.933333
77516;PMS7003;68414;53.946;27.634;2024-02-15T04:15:32;3.550000;3.550000;2.800000
77516;PMS7003;68414;53.946;27.634;2024-02-15T04:16:32;5.816667;4.950000;3.916667
77516;PMS7003;68414;53.946;27.634;2024-02-15T04:17:32;5.783333;5.716667;4.800000
77516;PMS7003;68414;53.946;27.634;2024-02-15T04:18:32;6.466667;6.216667;4.683333
77516;PMS7003;68414;53.946;27.634;2024-02-15T04:19:32;10.700000;9.633333;6.816667
77516;PMS7003;68414;53.946;27.634;2024-02-15T04:20:32;8.150000;6.683333;5.366667
77516;PMS7003;68414;53.946;27.634;2024-02-15T04:21:32;5.866667;5.500000;4.266667
77516;PMS7003;68414;53.946;27.634;2024-02-15T04:22:34;4.733333;4.416667;3.750000
77516;PMS7003;68414;53.946;27.634;2024-02-15T04:23:32;5.133333;4.550000;3.616667
77516;PMS7003;68414;53.946;27.634;2024-02-15T04:24:33;5.016667;4.566667;3.883333
77516;PMS7003;68414;53.946;27.634;2024-02-15T04:25:32;5.433333;4.716667;3.650000
77516;PMS7003;68414;53.946;27.634;2024-02-15T04:26:32;5.450000;5.050000;3.950000
77516;PMS7003;68414;53.946;27.634;2024-02-15T04:27:33;5.616667;5.450000;4.133333
77516;PMS7003;68414;53.946;27.634;2024-02-15T04:28:32;4.716667;4.133333;3.183333
77516;PMS7003;68414;53.946;27.634;2024-02-15T04:29:32;4.516667;4.133333;3.316667
77516;PMS7003;68414;53.946;27.634;2024-02-15T04:30:32;4.683333;4.683333;3.733333
77516;PMS7003;68414;53.946;27.634;2024-02-15T04:31:32;5.883333;5.133333;4.383333
77516;PMS7003;68414;53.946;27.634;2024-02-15T04:32:32;5.766667;5.083333;3.916667
77516;PMS7003;68414;53.946;27.634;2024-02-15T04:33:32;4.733333;4.550000;3.950000
77516;PMS7003;68414;53.946;27.634;2024-02-15T04:34:32;4.200000;4.200000;3.266667
77516;PMS7003;68414;53.946;27.634;2024-02-15T04:35:32;4.300000;4.300000;3.350000
77516;PMS7003;68414;53.946;27.634;2024-02-15T04:36:32;4.816667;4.516667;3.750000
77516;PMS7003;68414;53.946;27.634;2024-02-15T04:37:32;5.433333;4.700000;3.816667
77516;PMS7003;68414;53.946;27.634;2024-02-15T04:38:33;5.000000;4.683333;3.666667
77516;PMS7003;68414;53.946;27.634;2024-02-15T04:39:33;6.500000;5.500000;3.633333
77516;PMS7003;68414;53.946;27.634;2024-02-15T04:40:32;5.433333;4.333333;3.700000
77516;PMS7003;68414;53.946;27.634;2024-02-15T04:41:32;6.983333;6.016667;4.533333
77516;PMS7003;68414;53.946;27.634;2024-02-15T04:42:32;6.183333;5.200000;4.050000
77516;PMS7003;68414;53.946;27.634;2024-02-15T04:43:32;6.016667;5.016667;3.766667
77516;PMS7003;68414;53.946;27.634;2024-02-15T04:44:32;5.033333;4.733333;3.600000
77516;PMS7003;68414;53.946;27.634;2024-02-15T04:45:32;5.783333;5.250000;4.316667
77516;PMS7003;68414;53.946;27.634;2024-02-15T04:46:32;5.266667;4.800000;3.833333
77516;PMS7003;68414;53.946;27.634;2024-02-15T04:47:32;4.450000;4.450000;3.133333
77516;PMS7003;68414;53.946;27.634;2024-02-15T04:48:32;5.016667;4.716667;3.783333
77516;PMS7003;68414;53.946;27.634;2024-02-15T04:49:33;4.983333;4.483333;3.283333
77516;PMS7003;68414;53.946;27.634;2024-02-15T04:50:32;6.083333;5.166667;4.000000
77516;PMS7003;68414;53.946;27.634;2024-02-15T04:51:32;5.350000;5.083333;4.033333
77516;PMS7003;68414;53.946;27.634;2024-02-15T04:52:32;6.433333;4.966667;4.033333
77516;PMS7003;68414;53.946;27.634;2024-02-15T04:53:32;7.000000;5.616667;4.483333
77516;PMS7003;68414;53.946;27.634;2024-02-15T04:54:32;6.583333;5.483333;4.916667